Time;durP1;ratioP1;P1;durP2;ratioP2;P2;SDS_P1;SDS_P2;PMS_P1;PMS_P2;Temp;Humidity;BMP_temperature;BMP_pressure;BME280_temperature;BME280_humidity;BME280_pressure;Samples;Min_cycle;Max_cycle;Signal;HPM_P1;HPM_P2
2022/05/23 00:01:59;;;;;;;;;;;;;;;10.34;63.61;100136.10;52747;1269;1016958;-64
2022/05/23 00:04:29;;;;;;;;;;;;;;;10.29;63.64;100136.21;52890;1269;1016515;-64
2022/05/23 00:06:59;;;;;;;;;;;;;;;10.22;63.73;100133.02;52756;1269;1015876;-63
2022/05/23 00:09:30;;;;;;;;;;;;;;;10.18;63.72;100130.92;52727;1269;1015946;-63
2022/05/23 00:12:00;;;;;;;;;;;;;;;10.13;63.90;100129.41;52849;1269;1016635;-63
2022/05/23 00:14:31;;;;;;;;;;;;;;;10.05;63.78;100128.97;53184;1269;1018393;-63
2022/05/23 00:17:01;;;;;;;;;;;;;;;9.95;63.99;100125.73;52892;1268;1016178;-63
2022/05/23 00:19:31;;;;;;;;;;;;;;;9.87;64.29;100123.55;52853;1269;1016940;-63
2022/05/23 00:22:01;;;;;;;;;;;;;;;9.77;64.49;100122.44;52746;1268;1016698;-63
2022/05/23 00:24:31;;;;;;;;;;;;;;;9.69;64.57;100119.09;52794;1268;1015933;-63
2022/05/23 00:27:01;;;;;;;;;;;;;;;9.63;64.65;100117.80;52803;1268;1015795;-63
2022/05/23 00:29:31;;;;;;;;;;;;;;;9.59;64.90;100114.02;52854;1268;1015592;-63
2022/05/23 00:37:37;;;;;;;;;;;;;;;9.54;64.84;100124.34;52773;1269;1018101;-62
2022/05/23 00:40:12;;;;;;;;;;;;;;;9.53;64.79;100119.25;52962;1268;1016097;-62
2022/05/23 00:45:28;;;;;;;;;;;;;;;9.49;64.81;100117.04;52527;1274;1017538;-63
2022/05/23 00:47:58;;;;;;;;;;;;;;;9.43;64.93;100122.02;52524;1275;1016471;-62
2022/05/23 00:50:28;;;;;;;;;;;;;;;9.34;65.01;100117.69;52599;1273;1016759;-62
2022/05/23 00:52:58;;;;;;;;;;;;;;;9.26;65.13;100117.23;52567;1274;1016200;-63
2022/05/23 00:55:32;;;;;;;;;;;;;;;9.20;65.25;100120.80;52718;1273;1016408;-63
2022/05/23 00:58:04;;;;;;;;;;;;;;;9.13;65.33;100119.79;52673;1273;1016740;-62
2022/05/23 01:00:35;;;;;;;;;;;;;;;9.06;65.48;100117.67;52607;1273;1016084;-62
2022/05/23 01:03:07;;;;;;;;;;;;;;;9.01;65.49;100120.20;52664;1273;1016457;-62
2022/05/23 01:05:37;;;;;;;;;;;;;;;8.95;65.67;100119.54;52647;1273;1016403;-63
2022/05/23 01:08:08;;;;;;;;;;;;;;;8.89;65.67;100119.90;52634;1273;1019404;-63
2022/05/23 01:10:39;;;;;;;;;;;;;;;8.88;65.84;100119.06;52620;1273;1016639;-63
2022/05/23 01:13:09;;;;;;;;;;;;;;;8.83;66.10;100119.00;52774;1273;1016234;-63
2022/05/23 01:15:39;;;;;;;;;;;;;;;8.79;66.33;100117.64;52677;1273;1018986;-63
2022/05/23 01:18:09;;;;;;;;;;;;;;;8.80;66.31;100115.94;52713;1273;1016516;-63
2022/05/23 01:20:40;;;;;;;;;;;;;;;8.80;66.50;100115.79;52652;1273;1016195;-62
2022/05/23 01:23:21;;;;;;;;;;;;;;;8.81;66.64;100113.90;52772;1270;1017154;-62
2022/05/23 01:25:52;;;;;;;;;;;;;;;8.81;66.81;100116.77;52890;1269;1016384;-62
2022/05/23 01:28:23;;;;;;;;;;;;;;;8.84;66.76;100115.75;52825;1269;1016023;-62
2022/05/23 01:30:53;;;;;;;;;;;;;;;8.88;66.97;100118.11;52814;1269;1016805;-62
2022/05/23 01:33:25;;;;;;;;;;;;;;;8.84;67.05;100114.02;52835;1268;1016172;-62
2022/05/23 01:35:57;;;;;;;;;;;;;;;8.84;66.91;100113.45;52751;1269;1016435;-62
2022/05/23 01:38:27;;;;;;;;;;;;;;;8.86;66.99;100111.95;52785;1268;1016630;-62
2022/05/23 01:40:57;;;;;;;;;;;;;;;8.88;67.03;100107.44;52760;1269;1016698;-62
2022/05/23 01:43:28;;;;;;;;;;;;;;;8.92;67.12;100105.70;52940;1268;1016554;-62
2022/05/23 01:45:58;;;;;;;;;;;;;;;8.93;67.06;100100.61;52877;1268;1016308;-61
2022/05/23 01:48:28;;;;;;;;;;;;;;;8.95;66.99;100095.80;52866;1268;1016356;-62
2022/05/23 01:50:58;;;;;;;;;;;;;;;8.95;67.08;100095.98;52859;1268;1016380;-63
2022/05/23 01:53:28;;;;;;;;;;;;;;;8.91;67.35;100091.09;52859;1268;1016404;-63
2022/05/23 01:56:02;;;;;;;;;;;;;;;8.80;67.37;100089.31;52869;1268;1015879;-62
2022/05/23 02:01:20;;;;;;;;;;;;;;;8.75;67.44;100086.16;52830;1269;1016468;-62
2022/05/23 02:03:51;;;;;;;;;;;;;;;8.73;67.47;100084.64;52854;1268;1016137;-62
2022/05/23 02:06:20;;;;;;;;;;;;;;;8.68;67.60;100083.92;52801;1268;1015980;-62
2022/05/23 02:08:50;;;;;;;;;;;;;;;8.63;67.58;100087.81;52874;1268;1016549;-63
2022/05/23 02:11:20;;;;;;;;;;;;;;;8.63;67.68;100083.64;52873;1268;1016541;-63
2022/05/23 02:13:50;;;;;;;;;;;;;;;8.57;67.63;100086.74;52893;1268;1016616;-63
2022/05/23 02:16:23;;;;;;;;;;;;;;;8.52;67.77;100080.98;52883;1268;1016098;-62
2022/05/23 02:18:53;;;;;;;;;;;;;;;8.50;67.83;100078.98;52835;1268;1018115;-63
2022/05/23 02:21:23;;;;;;;;;;;;;;;8.50;67.77;100076.30;52881;1268;1016601;-62
2022/05/23 02:23:53;;;;;;;;;;;;;;;8.48;67.88;100072.81;52896;1269;1015744;-63
2022/05/23 02:26:23;;;;;;;;;;;;;;;8.51;67.78;100077.58;52870;1268;1016562;-62
2022/05/23 02:28:53;;;;;;;;;;;;;;;8.50;67.79;100080.03;52948;1268;1016783;-63
2022/05/23 02:31:23;;;;;;;;;;;;;;;8.43;67.98;100080.08;52840;1269;1016676;-62
2022/05/23 02:33:53;;;;;;;;;;;;;;;8.35;68.17;100084.54;52963;1269;1016757;-63
2022/05/23 02:36:23;;;;;;;;;;;;;;;8.33;68.16;100084.31;52843;1269;1016377;-62
2022/05/23 02:38:53;;;;;;;;;;;;;;;8.33;68.19;100081.45;52869;1269;1015891;-62
2022/05/23 02:41:23;;;;;;;;;;;;;;;8.32;68.16;100086.35;52879;1268;1016399;-62
2022/05/23 02:43:53;;;;;;;;;;;;;;;8.31;68.17;100081.17;52092;1269;2314844;-62
2022/05/23 02:46:23;;;;;;;;;;;;;;;8.30;68.26;100077.22;52849;1268;1016141;-62
2022/05/23 02:48:53;;;;;;;;;;;;;;;8.30;68.28;100076.72;52849;1270;1016506;-62
2022/05/23 02:51:24;;;;;;;;;;;;;;;8.27;68.52;100077.35;52822;1268;1016256;-62
2022/05/23 02:53:54;;;;;;;;;;;;;;;8.23;68.74;100075.60;52868;1268;1016479;-62
2022/05/23 02:56:24;;;;;;;;;;;;;;;8.19;68.93;100075.05;52817;1268;1016450;-62
2022/05/23 02:58:53;;;;;;;;;;;;;;;8.14;68.97;100074.01;52907;1268;1016555;-61
2022/05/23 03:01:24;;;;;;;;;;;;;;;8.10;69.10;100074.14;52814;1268;1016692;-60
2022/05/23 03:03:53;;;;;;;;;;;;;;;8.06;69.13;100079.09;52822;1268;1016772;-62
2022/05/23 03:06:24;;;;;;;;;;;;;;;7.99;69.24;100080.20;52837;1268;1016011;-61
2022/05/23 03:08:55;;;;;;;;;;;;;;;7.93;69.34;100079.41;52876;1268;1015951;-61
2022/05/23 03:11:25;;;;;;;;;;;;;;;7.92;69.66;100075.28;52831;1268;1016401;-62
2022/05/23 03:13:55;;;;;;;;;;;;;;;7.87;69.61;100081.83;52816;1269;1016569;-62
2022/05/23 03:16:26;;;;;;;;;;;;;;;7.82;69.64;100089.91;52770;1268;1016657;-62
2022/05/23 03:18:55;;;;;;;;;;;;;;;7.76;69.65;100087.23;52797;1268;1015983;-60
2022/05/23 03:27:02;;;;;;;;;;;;;;;7.71;69.93;100094.86;52854;1269;1016408;-61
2022/05/23 03:29:34;;;;;;;;;;;;;;;7.71;69.89;100095.16;52810;1268;1016319;-61
2022/05/23 03:32:04;;;;;;;;;;;;;;;7.72;70.01;100097.42;52867;1268;1016196;-63
2022/05/23 03:34:34;;;;;;;;;;;;;;;7.73;70.32;100100.89;52987;1268;1016701;-61
2022/05/23 03:37:04;;;;;;;;;;;;;;;7.74;70.38;100098.60;52993;1268;1016652;-61
2022/05/23 03:39:34;;;;;;;;;;;;;;;7.75;70.51;100101.11;52840;1268;1016663;-61
2022/05/23 03:42:05;;;;;;;;;;;;;;;7.77;70.69;100099.77;52875;1272;1017103;-61
2022/05/23 03:44:35;;;;;;;;;;;;;;;7.77;70.79;100106.41;52842;1268;1016414;-61
2022/05/23 03:47:05;;;;;;;;;;;;;;;7.80;70.87;100102.64;52898;1268;1016419;-63
2022/05/23 03:49:35;;;;;;;;;;;;;;;7.83;71.06;100105.61;52838;1268;1015990;-62
2022/05/23 03:52:06;;;;;;;;;;;;;;;7.87;71.22;100110.17;52853;1269;1016558;-62
2022/05/23 03:54:36;;;;;;;;;;;;;;;7.92;71.28;100112.42;52823;1270;1016250;-62
2022/05/23 03:57:06;;;;;;;;;;;;;;;7.97;71.27;100114.75;52807;1268;1017165;-62
2022/05/23 03:59:37;;;;;;;;;;;;;;;8.01;71.52;100114.95;52822;1268;1016541;-62
2022/05/23 04:02:07;;;;;;;;;;;;;;;8.05;71.66;100117.00;53113;1258;1015816;-55
2022/05/23 04:04:37;;;;;;;;;;;;;;;8.11;71.74;100114.05;52917;1268;1018767;-50
2022/05/23 04:07:07;;;;;;;;;;;;;;;8.18;71.85;100105.70;52784;1267;1016879;-53
2022/05/23 04:09:37;;;;;;;;;;;;;;;8.26;72.08;100110.55;54189;1267;1016431;-53
2022/05/23 04:12:07;;;;;;;;;;;;;;;8.32;72.32;100114.39;52783;1269;1016260;-54
2022/05/23 04:14:37;;;;;;;;;;;;;;;8.39;72.40;100119.06;52771;1270;1016395;-51
2022/05/23 04:17:08;;;;;;;;;;;;;;;8.46;72.60;100119.00;52817;1270;1016254;-52
2022/05/23 04:19:38;;;;;;;;;;;;;;;8.53;72.83;100113.10;52786;1271;1017321;-53
2022/05/23 04:22:08;;;;;;;;;;;;;;;8.59;72.85;100110.02;53460;1270;1016304;-52
2022/05/23 04:24:38;;;;;;;;;;;;;;;8.69;72.97;100117.20;52732;1270;1016269;-51
2022/05/23 04:27:08;;;;;;;;;;;;;;;8.77;73.15;100124.42;52726;1267;1016815;-51
2022/05/23 04:29:38;;;;;;;;;;;;;;;8.85;73.31;100132.52;53980;1267;1017098;-49
2022/05/23 04:35:12;;;;;;;;;;;;;;;8.93;73.04;100136.41;52858;1267;1016467;-50
2022/05/23 04:35:16;;;;;;;;;;;;;;;9.03;73.24;100132.27;52723;1267;1016412;-50
2022/05/23 04:37:48;;;;;;;;;;;;;;;9.15;73.49;100136.64;52693;1268;1016684;-49
2022/05/23 04:40:19;;;;;;;;;;;;;;;9.26;73.60;100138.57;52797;1268;1016884;-49
2022/05/23 04:42:49;;;;;;;;;;;;;;;9.38;73.78;100144.00;52673;1268;1016599;-53
2022/05/23 04:45:19;;;;;;;;;;;;;;;9.51;73.96;100149.02;52892;1267;1016876;-51
2022/05/23 04:50:37;;;;;;;;;;;;;;;9.71;73.71;100147.57;52739;1267;1016676;-52
2022/05/23 04:53:08;;;;;;;;;;;;;;;9.83;73.91;100143.71;52807;1268;1016286;-52
2022/05/23 04:55:41;;;;;;;;;;;;;;;10.00;74.07;100144.84;52869;1267;1016414;-53
2022/05/23 04:58:12;;;;;;;;;;;;;;;10.13;74.22;100143.98;52712;1268;1016722;-50
2022/05/23 05:00:43;;;;;;;;;;;;;;;10.22;74.44;100141.20;52954;1267;1016561;-51
2022/05/23 05:03:13;;;;;;;;;;;;;;;10.35;74.54;100140.92;52843;1268;1016272;-49
2022/05/23 05:05:43;;;;;;;;;;;;;;;10.46;74.69;100135.05;52823;1268;1016269;-49
2022/05/23 05:08:13;;;;;;;;;;;;;;;10.57;74.76;100132.70;52839;1270;1017724;-50
2022/05/23 05:10:44;;;;;;;;;;;;;;;10.70;74.82;100133.83;53134;1268;1016280;-50
2022/05/23 05:13:14;;;;;;;;;;;;;;;10.86;74.66;100143.23;52915;1268;1016337;-51
2022/05/23 05:15:45;;;;;;;;;;;;;;;11.03;74.70;100144.01;52840;1268;1016687;-51
2022/05/23 05:18:15;;;;;;;;;;;;;;;11.21;74.70;100149.15;52909;1268;1016035;-53
2022/05/23 05:20:45;;;;;;;;;;;;;;;11.38;74.52;100145.64;52845;1270;1016226;-50
2022/05/23 05:23:15;;;;;;;;;;;;;;;11.56;74.11;100146.20;52867;1268;1016512;-51
2022/05/23 05:25:45;;;;;;;;;;;;;;;11.72;73.58;100141.66;52926;1268;1016195;-49
2022/05/23 05:28:16;;;;;;;;;;;;;;;11.86;73.33;100142.86;52952;1268;1016301;-51
2022/05/23 05:30:48;;;;;;;;;;;;;;;11.96;73.04;100143.54;52820;1268;1016334;-50
2022/05/23 05:33:21;;;;;;;;;;;;;;;12.08;72.75;100144.23;52843;1269;1017580;-51
2022/05/23 05:35:53;;;;;;;;;;;;;;;12.20;72.25;100144.48;52867;1269;1016210;-49
2022/05/23 05:38:30;;;;;;;;;;;;;;;12.30;72.25;100133.02;52776;1268;1020029;-53
2022/05/23 05:41:03;;;;;;;;;;;;;;;12.46;72.18;100131.95;52828;1268;1016484;-51
2022/05/23 05:43:36;;;;;;;;;;;;;;;12.58;71.95;100125.70;52895;1269;1016635;-52
2022/05/23 05:46:12;;;;;;;;;;;;;;;12.70;71.52;100132.73;52822;1270;1016461;-53
2022/05/23 05:48:45;;;;;;;;;;;;;;;12.83;71.17;100135.08;52882;1267;1016531;-50
2022/05/23 05:51:16;;;;;;;;;;;;;;;12.92;70.75;100138.52;52853;1267;1016716;-50
2022/05/23 05:53:46;;;;;;;;;;;;;;;12.99;70.43;100135.46;52762;1268;1015935;-50
2022/05/23 05:56:16;;;;;;;;;;;;;;;13.08;70.17;100129.04;52807;1272;1016178;-52
2022/05/23 05:58:47;;;;;;;;;;;;;;;13.16;69.87;100130.42;52913;1268;1017889;-51
2022/05/23 06:01:17;;;;;;;;;;;;;;;13.27;69.68;100132.33;52881;1271;1016920;-52
2022/05/23 06:03:47;;;;;;;;;;;;;;;13.40;68.74;100132.92;52769;1271;1016645;-52
2022/05/23 06:11:52;;;;;;;;;;;;;;;13.73;67.21;100120.19;52770;1269;1016515;-51
2022/05/23 06:14:22;;;;;;;;;;;;;;;13.78;67.10;100121.83;52815;1270;1016227;-50
2022/05/23 06:16:52;;;;;;;;;;;;;;;13.91;67.18;100119.84;52914;1271;1019757;-53
2022/05/23 06:19:22;;;;;;;;;;;;;;;14.05;66.69;100117.39;52883;1269;1016574;-49
2022/05/23 06:21:52;;;;;;;;;;;;;;;14.17;66.15;100111.95;52788;1268;1019166;-51
2022/05/23 06:24:23;;;;;;;;;;;;;;;14.29;66.27;100113.58;52786;1268;1015832;-49
2022/05/23 06:26:53;;;;;;;;;;;;;;;14.38;65.16;100115.34;52822;1268;1016145;-52
2022/05/23 06:29:23;;;;;;;;;;;;;;;14.44;65.23;100115.77;52816;1271;1016303;-50
2022/05/23 06:31:53;;;;;;;;;;;;;;;14.51;64.74;100113.01;52916;1268;1016241;-50
2022/05/23 06:34:23;;;;;;;;;;;;;;;14.53;63.83;100106.48;53041;1268;1016497;-50
2022/05/23 06:36:53;;;;;;;;;;;;;;;14.56;63.82;100104.29;52796;1267;1016660;-51
2022/05/23 06:39:25;;;;;;;;;;;;;;;14.63;63.91;100105.15;52933;1268;1016411;-50
2022/05/23 06:41:55;;;;;;;;;;;;;;;14.67;63.48;100105.72;52828;1270;1016331;-52
2022/05/23 06:44:25;;;;;;;;;;;;;;;14.72;63.64;100103.01;52864;1268;1016772;-51
2022/05/23 06:46:55;;;;;;;;;;;;;;;14.81;63.27;100102.86;52827;1268;1018238;-50
2022/05/23 06:49:25;;;;;;;;;;;;;;;14.88;63.06;100103.98;52756;1268;1016715;-50
2022/05/23 06:51:55;;;;;;;;;;;;;;;14.94;63.07;100101.79;52877;1268;1016680;-50
2022/05/23 06:54:25;;;;;;;;;;;;;;;15.05;62.73;100099.86;52846;1268;1016222;-51
2022/05/23 06:56:55;;;;;;;;;;;;;;;15.11;62.24;100095.42;52817;1268;1016531;-50
2022/05/23 06:59:27;;;;;;;;;;;;;;;15.17;61.93;100097.86;52878;1268;1016423;-50
2022/05/23 07:01:58;;;;;;;;;;;;;;;15.23;61.89;100101.84;52912;1268;1017064;-52
2022/05/23 07:12:19;;;;;;;;;;;;;;;15.33;61.67;100098.23;52958;1268;1016464;-53
2022/05/23 07:12:54;;;;;;;;;;;;;;;15.66;60.69;100087.11;52866;1268;1016643;-51
2022/05/23 07:15:25;;;;;;;;;;;;;;;15.75;60.47;100076.92;52912;1269;1016497;-54
2022/05/23 07:17:54;;;;;;;;;;;;;;;15.84;60.46;100076.02;52874;1268;1016721;-53
2022/05/23 07:20:24;;;;;;;;;;;;;;;15.92;60.12;100071.78;52885;1272;1019722;-53
2022/05/23 07:22:54;;;;;;;;;;;;;;;16.00;60.09;100066.61;52880;1268;1016071;-54
2022/05/23 07:25:24;;;;;;;;;;;;;;;16.11;59.77;100063.68;52869;1268;1016715;-51
2022/05/23 07:27:54;;;;;;;;;;;;;;;16.20;59.57;100059.17;52969;1268;1016640;-54
2022/05/23 07:30:24;;;;;;;;;;;;;;;16.29;59.11;100047.83;52869;1268;1016765;-52
2022/05/23 07:32:54;;;;;;;;;;;;;;;16.36;59.06;100051.58;52931;1268;1016653;-53
2022/05/23 07:35:25;;;;;;;;;;;;;;;16.44;58.84;100053.36;52870;1268;1016389;-55
2022/05/23 07:37:55;;;;;;;;;;;;;;;16.51;57.98;100048.63;53023;1268;1016301;-52
2022/05/23 07:40:25;;;;;;;;;;;;;;;16.56;57.93;100047.91;52876;1268;1016581;-52
2022/05/23 07:42:55;;;;;;;;;;;;;;;16.62;57.46;100045.09;52977;1268;1017335;-55
2022/05/23 07:45:25;;;;;;;;;;;;;;;16.65;57.43;100040.92;52928;1268;1016797;-54
2022/05/23 07:47:55;;;;;;;;;;;;;;;16.70;57.16;100039.28;52972;1268;1016157;-55
2022/05/23 07:50:26;;;;;;;;;;;;;;;16.78;56.80;100037.98;52915;1268;1016715;-54
2022/05/23 08:01:17;;;;;;;;;;;;;;;16.88;54.64;100032.20;52895;1268;1015944;-51
2022/05/23 08:03:47;;;;;;;;;;;;;;;16.99;53.87;100033.93;53057;1268;1016545;-51
2022/05/23 08:06:18;;;;;;;;;;;;;;;17.08;53.85;100035.16;52993;1268;1016294;-54
2022/05/23 08:08:48;;;;;;;;;;;;;;;17.19;53.31;100037.52;53016;1268;1016495;-54
2022/05/23 08:11:18;;;;;;;;;;;;;;;17.29;53.30;100033.41;53114;1268;1021306;-53
2022/05/23 08:13:52;;;;;;;;;;;;;;;17.38;52.91;100029.19;52975;1268;1016378;-52
2022/05/23 08:16:22;;;;;;;;;;;;;;;17.44;52.59;100020.80;53021;1268;1016485;-55
2022/05/23 08:18:52;;;;;;;;;;;;;;;17.50;52.65;100014.78;52993;1268;1016841;-54
2022/05/23 08:21:23;;;;;;;;;;;;;;;17.58;51.85;100009.62;53115;1268;1016196;-53
2022/05/23 08:23:53;;;;;;;;;;;;;;;17.64;52.26;100015.17;52994;1268;1016245;-51
2022/05/23 08:26:24;;;;;;;;;;;;;;;17.75;51.91;100024.23;52946;1268;1016450;-53
2022/05/23 08:28:54;;;;;;;;;;;;;;;17.84;51.25;100026.48;52972;1268;1016357;-54
2022/05/23 08:31:24;;;;;;;;;;;;;;;17.88;51.13;100022.15;52971;1268;1016634;-54
2022/05/23 08:33:55;;;;;;;;;;;;;;;17.92;51.22;100019.22;52931;1268;1016557;-54
2022/05/23 08:36:25;;;;;;;;;;;;;;;17.99;50.65;100015.67;52966;1268;1016569;-55
2022/05/23 08:38:56;;;;;;;;;;;;;;;18.05;50.59;100012.14;52915;1268;1017034;-52
2022/05/23 08:41:27;;;;;;;;;;;;;;;18.12;50.33;100011.58;52899;1268;1016320;-53
2022/05/23 08:44:05;;;;;;;;;;;;;;;18.21;50.28;100010.77;52863;1268;1016005;-53
2022/05/23 08:46:40;;;;;;;;;;;;;;;18.28;49.87;100007.21;52943;1268;1016199;-52
2022/05/23 08:49:15;;;;;;;;;;;;;;;18.30;49.28;100005.99;52928;1268;1017019;-51
2022/05/23 08:51:55;;;;;;;;;;;;;;;18.34;49.09;100005.42;52925;1268;1016246;-55
2022/05/23 08:54:30;;;;;;;;;;;;;;;18.38;48.84;100004.21;53000;1267;1016499;-52
2022/05/23 08:57:03;;;;;;;;;;;;;;;18.36;48.23;100002.81;52870;1267;1016391;-51
2022/05/23 08:59:36;;;;;;;;;;;;;;;18.33;48.42;99996.08;52906;1268;1016300;-53
2022/05/23 09:02:09;;;;;;;;;;;;;;;18.38;48.33;99999.43;52915;1268;1016531;-53
2022/05/23 09:04:44;;;;;;;;;;;;;;;18.49;48.33;100001.66;52923;1267;1017222;-52
2022/05/23 09:07:15;;;;;;;;;;;;;;;18.58;47.90;99998.45;52968;1268;1016685;-51
2022/05/23 09:09:45;;;;;;;;;;;;;;;18.60;47.83;99992.11;52947;1268;1016315;-53
2022/05/23 09:12:16;;;;;;;;;;;;;;;18.62;47.53;99983.23;53000;1268;1018134;-53
2022/05/23 09:14:46;;;;;;;;;;;;;;;18.67;47.43;99983.20;52898;1268;1016339;-52
2022/05/23 09:17:20;;;;;;;;;;;;;;;18.72;47.53;99981.30;52936;1268;1016246;-51
2022/05/23 09:19:56;;;;;;;;;;;;;;;18.80;47.18;99981.83;52932;1268;1017532;-54
2022/05/23 09:22:34;;;;;;;;;;;;;;;18.84;46.34;99973.71;53180;1268;1016529;-51
2022/05/23 09:25:05;;;;;;;;;;;;;;;18.77;45.77;99964.50;52884;1268;1016422;-51
2022/05/23 09:27:38;;;;;;;;;;;;;;;18.74;46.18;99962.51;52842;1268;1016243;-54
2022/05/23 09:30:10;;;;;;;;;;;;;;;18.83;46.47;99956.35;52901;1268;1016361;-54
2022/05/23 09:32:43;;;;;;;;;;;;;;;18.91;46.18;99956.93;52955;1268;1016254;-53
2022/05/23 09:35:17;;;;;;;;;;;;;;;18.98;46.12;99958.13;52842;1268;1016465;-54
2022/05/23 09:37:48;;;;;;;;;;;;;;;19.07;45.70;99955.08;52826;1268;1016622;-54
2022/05/23 09:40:26;;;;;;;;;;;;;;;19.17;45.56;99954.30;52923;1268;1016936;-54
2022/05/23 09:49:03;;;;;;;;;;;;;;;19.28;44.68;99947.02;52764;1268;1016447;-52
2022/05/23 09:51:33;;;;;;;;;;;;;;;19.27;44.65;99941.38;52838;1268;1015861;-54
2022/05/23 09:54:04;;;;;;;;;;;;;;;19.32;44.81;99941.61;52808;1268;1016435;-53
2022/05/23 09:56:41;;;;;;;;;;;;;;;19.43;44.78;99936.55;52920;1268;1016971;-53
2022/05/23 09:59:23;;;;;;;;;;;;;;;19.45;43.83;99931.52;52870;1268;1016546;-52
2022/05/23 10:01:53;;;;;;;;;;;;;;;19.39;43.88;99931.95;52787;1268;1016416;-52
2022/05/23 10:04:27;;;;;;;;;;;;;;;19.41;43.85;99929.39;52768;1267;1016652;-53
2022/05/23 10:07:00;;;;;;;;;;;;;;;19.47;43.90;99928.34;53072;1259;1015768;-66
2022/05/23 10:09:33;;;;;;;;;;;;;;;19.59;43.67;99923.42;52841;1268;1016121;-66
2022/05/23 10:12:07;;;;;;;;;;;;;;;19.72;43.64;99916.67;52756;1268;1015987;-66
2022/05/23 10:14:42;;;;;;;;;;;;;;;19.86;43.35;99918.76;52823;1268;1016605;-67
2022/05/23 10:17:24;;;;;;;;;;;;;;;19.88;43.29;99913.98;52780;1268;1017523;-67
2022/05/23 10:19:55;;;;;;;;;;;;;;;19.92;43.20;99909.77;52774;1266;1016661;-66
2022/05/23 10:22:27;;;;;;;;;;;;;;;19.97;43.15;99907.88;52839;1268;1016076;-66
2022/05/23 10:25:00;;;;;;;;;;;;;;;20.02;42.99;99902.30;52832;1268;1016482;-67
2022/05/23 10:27:42;;;;;;;;;;;;;;;20.03;42.90;99894.34;52767;1268;1016680;-67
2022/05/23 10:30:16;;;;;;;;;;;;;;;20.06;42.89;99895.14;52771;1268;1015951;-66
2022/05/23 10:32:48;;;;;;;;;;;;;;;20.12;43.02;99891.09;52938;1266;1016210;-66
2022/05/23 10:35:22;;;;;;;;;;;;;;;20.24;42.93;99893.76;52996;1268;1016618;-66
2022/05/23 10:42:07;;;;;;;;;;;;;;;20.31;42.77;99893.39;52891;1268;1016534;-66
2022/05/23 10:43:42;;;;;;;;;;;;;;;20.36;42.07;99886.89;52926;1267;1017689;-67
2022/05/23 10:46:13;;;;;;;;;;;;;;;20.34;41.72;99888.47;52985;1267;1017564;-68
2022/05/23 10:48:46;;;;;;;;;;;;;;;20.36;41.90;99881.48;53033;1267;1016499;-67
2022/05/23 10:51:26;;;;;;;;;;;;;;;20.43;41.70;99880.55;52994;1267;1015937;-67
2022/05/23 10:54:04;;;;;;;;;;;;;;;20.50;41.54;99874.38;52873;1267;1016183;-67
2022/05/23 10:56:41;;;;;;;;;;;;;;;20.59;41.69;99870.83;52878;1267;1016381;-67
2022/05/23 10:59:15;;;;;;;;;;;;;;;20.68;41.62;99864.77;52867;1267;1015969;-67
2022/05/23 11:01:51;;;;;;;;;;;;;;;20.74;41.46;99859.80;53050;1268;1016475;-67
2022/05/23 11:04:31;;;;;;;;;;;;;;;20.79;41.29;99861.10;52942;1267;1016273;-67
2022/05/23 11:07:09;;;;;;;;;;;;;;;20.82;40.91;99857.09;52981;1267;1016629;-67
2022/05/23 11:09:47;;;;;;;;;;;;;;;20.81;40.78;99855.73;52835;1267;1016630;-67
2022/05/23 11:12:23;;;;;;;;;;;;;;;20.77;40.35;99849.42;52900;1267;1018024;-67
2022/05/23 11:15:03;;;;;;;;;;;;;;;20.74;40.50;99849.33;52947;1267;1016268;-67
2022/05/23 11:17:38;;;;;;;;;;;;;;;20.76;40.68;99847.83;52900;1267;1015990;-67
2022/05/23 11:20:10;;;;;;;;;;;;;;;20.82;40.80;99846.61;52941;1267;1016698;-67
2022/05/23 11:22:43;;;;;;;;;;;;;;;20.86;40.38;99848.98;53008;1267;1016975;-68
2022/05/23 11:25:27;;;;;;;;;;;;;;;20.89;40.55;99837.48;53032;1267;1016549;-67
2022/05/23 11:33:46;;;;;;;;;;;;;;;20.99;40.10;99834.37;53007;1267;1016203;-67
2022/05/23 11:36:24;;;;;;;;;;;;;;;20.97;39.95;99822.89;53010;1267;1017348;-67
2022/05/23 11:38:55;;;;;;;;;;;;;;;20.98;39.96;99819.97;52988;1268;1016492;-67
2022/05/23 11:41:35;;;;;;;;;;;;;;;21.01;39.76;99818.63;52979;1267;1016635;-67
2022/05/23 11:44:16;;;;;;;;;;;;;;;21.04;39.99;99818.02;52940;1267;1016145;-67
2022/05/23 11:47:07;;;;;;;;;;;;;;;21.12;39.61;99817.44;52926;1267;1016719;-67
2022/05/23 11:49:46;;;;;;;;;;;;;;;21.18;39.48;99811.30;52858;1267;1016421;-68
2022/05/23 11:52:25;;;;;;;;;;;;;;;21.25;39.35;99813.62;52874;1267;1016332;-68
2022/05/23 11:54:55;;;;;;;;;;;;;;;21.32;39.20;99813.08;53022;1267;1016576;-68
2022/05/23 11:57:33;;;;;;;;;;;;;;;21.41;39.06;99807.84;52923;1267;1016643;-68
2022/05/23 12:00:06;;;;;;;;;;;;;;;21.47;39.08;99807.28;52982;1266;1015930;-68
2022/05/23 12:02:39;;;;;;;;;;;;;;;21.56;38.70;99810.14;52960;1267;1016623;-68
2022/05/23 12:05:12;;;;;;;;;;;;;;;21.63;38.23;99809.80;52872;1267;1018006;-68
2022/05/23 12:07:59;;;;;;;;;;;;;;;21.66;38.27;99807.58;53035;1267;1015884;-69
2022/05/23 12:10:43;;;;;;;;;;;;;;;21.69;37.71;99801.17;53190;1267;1016606;-68
2022/05/23 12:13:37;;;;;;;;;;;;;;;21.66;37.15;99795.34;52974;1267;1019127;-68
2022/05/23 12:16:37;;;;;;;;;;;;;;;21.66;37.47;99795.78;52897;1267;1016564;-68
2022/05/23 12:19:26;;;;;;;;;;;;;;;21.73;37.40;99787.98;53013;1267;1016323;-68
2022/05/23 12:22:16;;;;;;;;;;;;;;;21.80;37.10;99783.37;53153;1267;1016630;-69
2022/05/23 12:25:03;;;;;;;;;;;;;;;21.79;37.01;99777.61;53187;1267;1016656;-69
2022/05/23 12:27:34;;;;;;;;;;;;;;;21.84;37.05;99766.65;53019;1266;1021119;-69
2022/05/23 12:30:21;;;;;;;;;;;;;;;21.89;36.87;99764.41;53171;1267;1016790;-69
2022/05/23 12:32:51;;;;;;;;;;;;;;;21.95;36.41;99764.68;52866;1271;1017267;-69
2022/05/23 12:35:34;;;;;;;;;;;;;;;21.98;36.56;99759.11;52935;1271;1016429;-69
2022/05/23 12:38:13;;;;;;;;;;;;;;;21.99;36.41;99760.80;52992;1273;1016730;-69
2022/05/23 12:40:47;;;;;;;;;;;;;;;22.02;36.25;99753.48;52962;1272;1017079;-69
2022/05/23 12:43:25;;;;;;;;;;;;;;;22.05;36.24;99750.38;52911;1271;1016630;-69
2022/05/23 12:46:00;;;;;;;;;;;;;;;22.11;36.02;99749.16;52944;1271;1015990;-69
2022/05/23 12:48:37;;;;;;;;;;;;;;;22.16;35.99;99748.27;52897;1271;1016590;-69
2022/05/23 12:51:18;;;;;;;;;;;;;;;22.19;36.15;99740.88;52971;1271;1019996;-69
2022/05/23 12:53:56;;;;;;;;;;;;;;;22.26;35.90;99729.56;52987;1271;1016153;-69
2022/05/23 12:56:39;;;;;;;;;;;;;;;22.28;35.78;99727.51;52933;1271;1019536;-69
2022/05/23 12:59:31;;;;;;;;;;;;;;;22.28;35.32;99727.66;53013;1271;1016764;-69
2022/05/23 13:02:02;;;;;;;;;;;;;;;22.29;35.47;99721.83;52993;1271;1017904;-69
2022/05/23 13:04:35;;;;;;;;;;;;;;;22.27;35.01;99717.62;52949;1271;1016554;-69
2022/05/23 13:07:09;;;;;;;;;;;;;;;22.25;35.08;99708.17;53043;1272;1016620;-69
2022/05/23 13:09:41;;;;;;;;;;;;;;;22.30;34.83;99707.75;53003;1267;1016206;-69
2022/05/23 13:12:16;;;;;;;;;;;;;;;22.33;34.92;99693.83;53059;1267;1017363;-69
2022/05/23 13:14:53;;;;;;;;;;;;;;;22.36;34.73;99692.41;53242;1267;1016581;-69
2022/05/23 13:17:36;;;;;;;;;;;;;;;22.43;34.83;99688.52;53182;1267;1016698;-69
2022/05/23 13:23:03;;;;;;;;;;;;;;;22.50;34.49;99681.73;53155;1266;1016512;-69
2022/05/23 13:25:34;;;;;;;;;;;;;;;22.55;34.53;99682.17;53181;1267;1016221;-69
2022/05/23 13:28:08;;;;;;;;;;;;;;;22.59;34.30;99679.36;52979;1267;1017324;-68
2022/05/23 13:30:42;;;;;;;;;;;;;;;22.59;33.88;99678.42;53230;1267;1015887;-68
2022/05/23 13:33:14;;;;;;;;;;;;;;;22.60;33.97;99678.61;53190;1267;1016386;-68
2022/05/23 13:35:45;;;;;;;;;;;;;;;22.63;33.90;99676.16;53146;1267;1015907;-69
2022/05/23 13:38:16;;;;;;;;;;;;;;;22.67;34.05;99677.11;53115;1267;1016237;-69
2022/05/23 13:40:48;;;;;;;;;;;;;;;22.71;33.71;99676.05;53148;1267;1016634;-68
2022/05/23 13:43:20;;;;;;;;;;;;;;;22.71;33.58;99677.49;53194;1267;1016541;-69
2022/05/23 13:45:56;;;;;;;;;;;;;;;22.71;33.48;99672.19;53203;1267;1016227;-68
2022/05/23 13:48:29;;;;;;;;;;;;;;;22.64;33.28;99669.06;53193;1267;1016234;-68